sensor_id;sensor_type;location;lat;lon;timestamp;P1;durP1;ratioP1;P2;durP2;ratioP2
68074;SDS011;54864;52.002;5.468;2023-07-20T00:00:04;10.55;;;7.55;;
68074;SDS011;54864;52.002;5.468;2023-07-20T00:01:07;10.15;;;7.47;;
68074;SDS011;54864;52.002;5.468;2023-07-20T00:02:10;10.43;;;7.43;;
68074;SDS011;54864;52.002;5.468;2023-07-20T00:03:31;11.13;;;7.57;;
68074;SDS011;54864;52.002;5.468;2023-07-20T00:04:51;12.35;;;8.00;;
68074;SDS011;54864;52.002;5.468;2023-07-20T00:05:53;11.85;;;7.90;;
68074;SDS011;54864;52.002;5.468;2023-07-20T00:06:54;8.55;;;7.13;;
68074;SDS011;54864;52.002;5.468;2023-07-20T00:08:13;10.83;;;7.83;;
68074;SDS011;54864;52.002;5.468;2023-07-20T00:09:16;14.23;;;8.52;;
68074;SDS011;54864;52.002;5.468;2023-07-20T00:10:29;11.27;;;7.88;;
68074;SDS011;54864;52.002;5.468;2023-07-20T00:11:37;16.25;;;8.85;;
68074;SDS011;54864;52.002;5.468;2023-07-20T00:12:38;11.02;;;8.18;;
68074;SDS011;54864;52.002;5.468;2023-07-20T00:13:58;9.90;;;7.55;;
68074;SDS011;54864;52.002;5.468;2023-07-20T00:14:59;12.93;;;8.18;;
68074;SDS011;54864;52.002;5.468;2023-07-20T00:16:11;10.73;;;8.18;;
68074;SDS011;54864;52.002;5.468;2023-07-20T00:17:12;12.77;;;8.20;;
68074;SDS011;54864;52.002;5.468;2023-07-20T00:18:14;13.82;;;9.30;;
68074;SDS011;54864;52.002;5.468;2023-07-20T00:19:14;10.68;;;8.10;;
68074;SDS011;54864;52.002;5.468;2023-07-20T00:20:36;11.32;;;8.32;;
68074;SDS011;54864;52.002;5.468;2023-07-20T00:21:36;12.55;;;8.35;;
68074;SDS011;54864;52.002;5.468;2023-07-20T00:22:40;9.98;;;8.00;;
68074;SDS011;54864;52.002;5.468;2023-07-20T00:23:59;10.32;;;8.43;;
68074;SDS011;54864;52.002;5.468;2023-07-20T00:25:04;11.00;;;8.57;;
68074;SDS011;54864;52.002;5.468;2023-07-20T00:26:08;14.60;;;8.70;;
68074;SDS011;54864;52.002;5.468;2023-07-20T00:27:30;9.63;;;7.95;;
68074;SDS011;54864;52.002;5.468;2023-07-20T00:28:31;14.65;;;9.00;;
68074;SDS011;54864;52.002;5.468;2023-07-20T00:29:33;10.52;;;8.10;;
68074;SDS011;54864;52.002;5.468;2023-07-20T00:30:33;11.57;;;8.33;;
68074;SDS011;54864;52.002;5.468;2023-07-20T00:31:43;11.98;;;7.97;;
68074;SDS011;54864;52.002;5.468;2023-07-20T00:32:45;12.55;;;8.32;;
68074;SDS011;54864;52.002;5.468;2023-07-20T00:33:46;10.77;;;7.95;;
68074;SDS011;54864;52.002;5.468;2023-07-20T00:34:48;11.43;;;8.40;;
68074;SDS011;54864;52.002;5.468;2023-07-20T00:35:48;12.27;;;8.45;;
68074;SDS011;54864;52.002;5.468;2023-07-20T00:36:50;11.80;;;8.27;;
68074;SDS011;54864;52.002;5.468;2023-07-20T00:37:51;12.93;;;8.37;;
68074;SDS011;54864;52.002;5.468;2023-07-20T00:38:53;11.03;;;8.77;;
68074;SDS011;54864;52.002;5.468;2023-07-20T00:39:54;15.50;;;8.15;;
68074;SDS011;54864;52.002;5.468;2023-07-20T00:40:56;9.38;;;8.15;;
68074;SDS011;54864;52.002;5.468;2023-07-20T00:42:00;9.85;;;8.13;;
68074;SDS011;54864;52.002;5.468;2023-07-20T00:43:03;12.65;;;8.35;;
68074;SDS011;54864;52.002;5.468;2023-07-20T00:44:04;10.63;;;8.30;;
68074;SDS011;54864;52.002;5.468;2023-07-20T00:45:06;10.77;;;8.25;;
68074;SDS011;54864;52.002;5.468;2023-07-20T00:46:07;13.73;;;9.05;;
68074;SDS011;54864;52.002;5.468;2023-07-20T00:47:09;12.02;;;8.85;;
68074;SDS011;54864;52.002;5.468;2023-07-20T00:48:12;10.82;;;8.40;;
68074;SDS011;54864;52.002;5.468;2023-07-20T00:49:14;13.10;;;8.70;;
68074;SDS011;54864;52.002;5.468;2023-07-20T00:50:30;12.35;;;8.75;;
68074;SDS011;54864;52.002;5.468;2023-07-20T00:51:32;11.03;;;8.53;;
68074;SDS011;54864;52.002;5.468;2023-07-20T00:52:34;14.75;;;8.70;;
68074;SDS011;54864;52.002;5.468;2023-07-20T00:53:39;10.80;;;8.40;;
68074;SDS011;54864;52.002;5.468;2023-07-20T00:54:41;10.55;;;8.32;;
68074;SDS011;54864;52.002;5.468;2023-07-20T00:55:43;11.00;;;8.88;;
68074;SDS011;54864;52.002;5.468;2023-07-20T00:56:45;9.27;;;8.10;;
68074;SDS011;54864;52.002;5.468;2023-07-20T00:57:46;11.48;;;7.85;;
68074;SDS011;54864;52.002;5.468;2023-07-20T00:58:50;9.93;;;8.15;;
68074;SDS011;54864;52.002;5.468;2023-07-20T00:59:51;8.98;;;7.38;;
68074;SDS011;54864;52.002;5.468;2023-07-20T01:00:53;11.93;;;8.77;;
68074;SDS011;54864;52.002;5.468;2023-07-20T01:01:54;8.13;;;7.32;;
68074;SDS011;54864;52.002;5.468;2023-07-20T01:02:55;10.05;;;7.90;;
68074;SDS011;54864;52.002;5.468;2023-07-20T01:04:00;10.00;;;7.97;;
68074;SDS011;54864;52.002;5.468;2023-07-20T01:05:00;9.52;;;7.47;;
68074;SDS011;54864;52.002;5.468;2023-07-20T01:06:05;10.63;;;8.32;;
68074;SDS011;54864;52.002;5.468;2023-07-20T01:07:17;9.32;;;8.18;;
68074;SDS011;54864;52.002;5.468;2023-07-20T01:08:30;10.57;;;7.68;;
68074;SDS011;54864;52.002;5.468;2023-07-20T01:09:58;11.23;;;8.65;;
68074;SDS011;54864;52.002;5.468;2023-07-20T01:11:10;10.70;;;8.15;;
68074;SDS011;54864;52.002;5.468;2023-07-20T01:12:36;11.55;;;8.63;;
68074;SDS011;54864;52.002;5.468;2023-07-20T01:13:43;10.45;;;8.65;;
68074;SDS011;54864;52.002;5.468;2023-07-20T01:14:47;11.65;;;8.63;;
68074;SDS011;54864;52.002;5.468;2023-07-20T01:16:08;12.10;;;8.65;;
68074;SDS011;54864;52.002;5.468;2023-07-20T01:17:09;9.43;;;7.70;;
68074;SDS011;54864;52.002;5.468;2023-07-20T01:18:31;11.07;;;8.32;;
68074;SDS011;54864;52.002;5.468;2023-07-20T01:19:51;10.52;;;8.40;;
68074;SDS011;54864;52.002;5.468;2023-07-20T01:20:52;12.43;;;8.38;;
68074;SDS011;54864;52.002;5.468;2023-07-20T01:22:02;10.32;;;7.45;;
68074;SDS011;54864;52.002;5.468;2023-07-20T01:23:18;14.80;;;8.45;;
68074;SDS011;54864;52.002;5.468;2023-07-20T01:25:05;9.18;;;6.75;;
68074;SDS011;54864;52.002;5.468;2023-07-20T01:26:48;7.55;;;6.10;;
68074;SDS011;54864;52.002;5.468;2023-07-20T01:29:47;9.60;;;5.80;;
68074;SDS011;54864;52.002;5.468;2023-07-20T01:31:17;11.90;;;7.13;;
68074;SDS011;54864;52.002;5.468;2023-07-20T01:32:40;8.32;;;6.10;;
68074;SDS011;54864;52.002;5.468;2023-07-20T01:33:45;10.80;;;6.60;;
68074;SDS011;54864;52.002;5.468;2023-07-20T01:34:48;6.25;;;5.32;;
68074;SDS011;54864;52.002;5.468;2023-07-20T01:35:54;5.65;;;5.13;;
68074;SDS011;54864;52.002;5.468;2023-07-20T01:36:59;5.55;;;4.88;;
68074;SDS011;54864;52.002;5.468;2023-07-20T01:38:01;5.30;;;4.63;;
68074;SDS011;54864;52.002;5.468;2023-07-20T01:39:03;6.03;;;5.25;;
68074;SDS011;54864;52.002;5.468;2023-07-20T01:40:07;8.10;;;5.90;;
68074;SDS011;54864;52.002;5.468;2023-07-20T01:41:29;5.75;;;5.15;;
68074;SDS011;54864;52.002;5.468;2023-07-20T01:42:49;5.73;;;4.80;;
68074;SDS011;54864;52.002;5.468;2023-07-20T01:43:51;5.20;;;4.63;;
68074;SDS011;54864;52.002;5.468;2023-07-20T01:45:11;6.03;;;4.72;;
68074;SDS011;54864;52.002;5.468;2023-07-20T01:46:19;5.20;;;4.70;;
68074;SDS011;54864;52.002;5.468;2023-07-20T01:47:40;6.63;;;4.72;;
68074;SDS011;54864;52.002;5.468;2023-07-20T01:48:41;6.30;;;4.63;;
68074;SDS011;54864;52.002;5.468;2023-07-20T01:50:01;5.78;;;4.60;;
68074;SDS011;54864;52.002;5.468;2023-07-20T01:51:02;8.20;;;4.78;;
68074;SDS011;54864;52.002;5.468;2023-07-20T01:52:04;6.83;;;4.33;;
68074;SDS011;54864;52.002;5.468;2023-07-20T01:53:05;5.40;;;4.90;;
68074;SDS011;54864;52.002;5.468;2023-07-20T01:54:08;4.93;;;4.50;;
68074;SDS011;54864;52.002;5.468;2023-07-20T01:55:08;4.57;;;4.18;;
68074;SDS011;54864;52.002;5.468;2023-07-20T01:56:29;5.82;;;4.20;;
68074;SDS011;54864;52.002;5.468;2023-07-20T01:57:48;4.13;;;3.72;;
68074;SDS011;54864;52.002;5.468;2023-07-20T01:58:50;5.55;;;4.75;;
68074;SDS011;54864;52.002;5.468;2023-07-20T01:59:54;4.38;;;3.97;;
68074;SDS011;54864;52.002;5.468;2023-07-20T02:00:55;4.50;;;3.92;;
68074;SDS011;54864;52.002;5.468;2023-07-20T02:01:58;5.15;;;4.22;;
68074;SDS011;54864;52.002;5.468;2023-07-20T02:02:59;4.57;;;4.10;;
68074;SDS011;54864;52.002;5.468;2023-07-20T02:04:00;5.60;;;4.00;;
68074;SDS011;54864;52.002;5.468;2023-07-20T02:05:04;5.65;;;4.40;;
68074;SDS011;54864;52.002;5.468;2023-07-20T02:06:24;4.65;;;4.03;;
68074;SDS011;54864;52.002;5.468;2023-07-20T02:07:44;7.28;;;4.80;;
68074;SDS011;54864;52.002;5.468;2023-07-20T02:08:45;4.40;;;4.00;;
68074;SDS011;54864;52.002;5.468;2023-07-20T02:09:53;4.70;;;3.97;;
68074;SDS011;54864;52.002;5.468;2023-07-20T02:11:03;4.90;;;4.00;;
68074;SDS011;54864;52.002;5.468;2023-07-20T02:12:05;5.18;;;4.15;;
68074;SDS011;54864;52.002;5.468;2023-07-20T02:13:06;4.53;;;4.13;;
68074;SDS011;54864;52.002;5.468;2023-07-20T02:14:09;4.25;;;3.78;;
68074;SDS011;54864;52.002;5.468;2023-07-20T02:15:10;4.75;;;4.00;;
68074;SDS011;54864;52.002;5.468;2023-07-20T02:16:32;4.22;;;3.85;;
68074;SDS011;54864;52.002;5.468;2023-07-20T02:17:34;4.28;;;3.95;;
68074;SDS011;54864;52.002;5.468;2023-07-20T02:18:36;5.90;;;4.40;;
68074;SDS011;54864;52.002;5.468;2023-07-20T02:19:37;4.45;;;3.97;;
68074;SDS011;54864;52.002;5.468;2023-07-20T02:20:56;5.10;;;4.60;;
68074;SDS011;54864;52.002;5.468;2023-07-20T02:21:59;4.50;;;4.10;;
68074;SDS011;54864;52.002;5.468;2023-07-20T02:23:00;4.82;;;4.20;;
68074;SDS011;54864;52.002;5.468;2023-07-20T02:24:02;4.90;;;4.40;;
68074;SDS011;54864;52.002;5.468;2023-07-20T02:25:04;5.50;;;4.43;;
68074;SDS011;54864;52.002;5.468;2023-07-20T02:26:06;4.88;;;4.43;;
68074;SDS011;54864;52.002;5.468;2023-07-20T02:27:22;5.53;;;4.43;;
68074;SDS011;54864;52.002;5.468;2023-07-20T02:28:42;4.57;;;4.13;;
68074;SDS011;54864;52.002;5.468;2023-07-20T02:29:52;5.70;;;4.60;;
68074;SDS011;54864;52.002;5.468;2023-07-20T02:31:12;5.60;;;4.25;;
68074;SDS011;54864;52.002;5.468;2023-07-20T02:32:14;5.35;;;4.32;;
68074;SDS011;54864;52.002;5.468;2023-07-20T02:33:22;5.97;;;4.10;;
68074;SDS011;54864;52.002;5.468;2023-07-20T02:34:39;4.90;;;4.32;;
68074;SDS011;54864;52.002;5.468;2023-07-20T02:35:58;4.88;;;3.65;;
68074;SDS011;54864;52.002;5.468;2023-07-20T02:37:00;4.50;;;4.07;;
68074;SDS011;54864;52.002;5.468;2023-07-20T02:38:01;5.38;;;3.70;;
68074;SDS011;54864;52.002;5.468;2023-07-20T02:39:03;4.22;;;3.90;;
68074;SDS011;54864;52.002;5.468;2023-07-20T02:40:04;4.37;;;3.97;;
68074;SDS011;54864;52.002;5.468;2023-07-20T02:41:07;4.93;;;4.00;;
68074;SDS011;54864;52.002;5.468;2023-07-20T02:42:09;5.10;;;4.60;;
68074;SDS011;54864;52.002;5.468;2023-07-20T02:43:10;4.80;;;4.30;;
68074;SDS011;54864;52.002;5.468;2023-07-20T02:44:11;4.70;;;4.30;;
68074;SDS011;54864;52.002;5.468;2023-07-20T02:45:13;4.18;;;3.88;;
68074;SDS011;54864;52.002;5.468;2023-07-20T02:46:35;5.03;;;4.53;;
68074;SDS011;54864;52.002;5.468;2023-07-20T02:47:55;4.30;;;3.90;;
68074;SDS011;54864;52.002;5.468;2023-07-20T02:48:58;4.55;;;4.00;;
68074;SDS011;54864;52.002;5.468;2023-07-20T02:50:02;4.57;;;4.17;;
68074;SDS011;54864;52.002;5.468;2023-07-20T02:51:07;5.13;;;4.28;;
68074;SDS011;54864;52.002;5.468;2023-07-20T02:52:08;4.35;;;3.95;;
68074;SDS011;54864;52.002;5.468;2023-07-20T02:53:09;4.93;;;3.78;;
68074;SDS011;54864;52.002;5.468;2023-07-20T02:54:10;4.23;;;3.60;;
68074;SDS011;54864;52.002;5.468;2023-07-20T02:55:12;4.95;;;3.63;;
68074;SDS011;54864;52.002;5.468;2023-07-20T02:56:13;4.85;;;4.15;;
68074;SDS011;54864;52.002;5.468;2023-07-20T02:57:15;4.18;;;3.78;;
68074;SDS011;54864;52.002;5.468;2023-07-20T02:58:35;5.05;;;3.70;;
68074;SDS011;54864;52.002;5.468;2023-07-20T02:59:56;4.55;;;4.15;;
68074;SDS011;54864;52.002;5.468;2023-07-20T03:00:57;5.20;;;4.17;;
68074;SDS011;54864;52.002;5.468;2023-07-20T03:01:58;4.30;;;3.67;;
68074;SDS011;54864;52.002;5.468;2023-07-20T03:03:18;5.20;;;4.20;;
68074;SDS011;54864;52.002;5.468;2023-07-20T03:04:40;4.47;;;4.07;;
68074;SDS011;54864;52.002;5.468;2023-07-20T03:05:41;4.25;;;3.67;;
68074;SDS011;54864;52.002;5.468;2023-07-20T03:07:01;4.30;;;3.80;;
68074;SDS011;54864;52.002;5.468;2023-07-20T03:08:06;4.10;;;3.60;;
68074;SDS011;54864;52.002;5.468;2023-07-20T03:09:08;5.22;;;3.42;;
68074;SDS011;54864;52.002;5.468;2023-07-20T03:10:09;4.23;;;3.40;;
68074;SDS011;54864;52.002;5.468;2023-07-20T03:11:12;5.78;;;3.80;;
68074;SDS011;54864;52.002;5.468;2023-07-20T03:12:13;5.15;;;4.03;;
68074;SDS011;54864;52.002;5.468;2023-07-20T03:13:34;4.70;;;3.55;;
68074;SDS011;54864;52.002;5.468;2023-07-20T03:14:53;4.22;;;3.65;;
68074;SDS011;54864;52.002;5.468;2023-07-20T03:15:57;5.97;;;3.83;;
68074;SDS011;54864;52.002;5.468;2023-07-20T03:17:16;3.58;;;3.28;;
68074;SDS011;54864;52.002;5.468;2023-07-20T03:18:37;3.95;;;3.55;;
68074;SDS011;54864;52.002;5.468;2023-07-20T03:19:39;4.60;;;3.50;;
68074;SDS011;54864;52.002;5.468;2023-07-20T03:20:47;6.28;;;3.80;;
68074;SDS011;54864;52.002;5.468;2023-07-20T03:22:07;4.10;;;3.75;;
68074;SDS011;54864;52.002;5.468;2023-07-20T03:23:08;3.97;;;3.38;;
68074;SDS011;54864;52.002;5.468;2023-07-20T03:24:15;4.00;;;3.60;;
68074;SDS011;54864;52.002;5.468;2023-07-20T03:25:32;4.00;;;3.28;;
68074;SDS011;54864;52.002;5.468;2023-07-20T03:26:52;5.68;;;3.80;;
68074;SDS011;54864;52.002;5.468;2023-07-20T03:27:54;4.10;;;3.58;;
68074;SDS011;54864;52.002;5.468;2023-07-20T03:28:54;4.82;;;3.28;;
68074;SDS011;54864;52.002;5.468;2023-07-20T03:29:56;4.60;;;3.40;;
68074;SDS011;54864;52.002;5.468;2023-07-20T03:30:57;4.63;;;3.40;;
68074;SDS011;54864;52.002;5.468;2023-07-20T03:32:18;4.93;;;3.47;;
68074;SDS011;54864;52.002;5.468;2023-07-20T03:33:37;3.85;;;3.38;;
68074;SDS011;54864;52.002;5.468;2023-07-20T03:34:41;3.88;;;3.33;;
68074;SDS011;54864;52.002;5.468;2023-07-20T03:35:42;4.68;;;3.10;;
68074;SDS011;54864;52.002;5.468;2023-07-20T03:36:44;3.53;;;3.10;;
68074;SDS011;54864;52.002;5.468;2023-07-20T03:37:45;4.13;;;3.70;;
68074;SDS011;54864;52.002;5.468;2023-07-20T03:38:49;3.75;;;3.40;;
68074;SDS011;54864;52.002;5.468;2023-07-20T03:40:09;4.53;;;3.17;;
68074;SDS011;54864;52.002;5.468;2023-07-20T03:41:11;4.90;;;4.15;;
68074;SDS011;54864;52.002;5.468;2023-07-20T03:42:21;4.50;;;3.42;;
68074;SDS011;54864;52.002;5.468;2023-07-20T03:43:43;3.72;;;3.42;;
68074;SDS011;54864;52.002;5.468;2023-07-20T03:44:46;4.63;;;3.58;;
68074;SDS011;54864;52.002;5.468;2023-07-20T03:45:48;3.78;;;3.38;;
68074;SDS011;54864;52.002;5.468;2023-07-20T03:47:08;5.20;;;3.85;;
68074;SDS011;54864;52.002;5.468;2023-07-20T03:48:10;3.35;;;3.05;;
68074;SDS011;54864;52.002;5.468;2023-07-20T03:49:26;3.60;;;3.30;;
68074;SDS011;54864;52.002;5.468;2023-07-20T03:50:38;3.50;;;3.10;;
68074;SDS011;54864;52.002;5.468;2023-07-20T03:51:38;3.72;;;3.30;;
68074;SDS011;54864;52.002;5.468;2023-07-20T03:52:43;3.50;;;3.20;;
68074;SDS011;54864;52.002;5.468;2023-07-20T03:53:47;4.10;;;3.22;;
68074;SDS011;54864;52.002;5.468;2023-07-20T03:54:49;5.70;;;3.67;;
68074;SDS011;54864;52.002;5.468;2023-07-20T03:55:51;4.45;;;3.63;;
68074;SDS011;54864;52.002;5.468;2023-07-20T03:57:12;5.28;;;3.45;;
68074;SDS011;54864;52.002;5.468;2023-07-20T03:58:13;3.60;;;3.20;;
68074;SDS011;54864;52.002;5.468;2023-07-20T03:59:15;5.13;;;3.47;;
68074;SDS011;54864;52.002;5.468;2023-07-20T04:00:16;4.75;;;3.50;;
68074;SDS011;54864;52.002;5.468;2023-07-20T04:01:19;5.75;;;3.45;;
68074;SDS011;54864;52.002;5.468;2023-07-20T04:02:28;5.35;;;3.38;;
68074;SDS011;54864;52.002;5.468;2023-07-20T04:03:48;3.75;;;3.22;;
68074;SDS011;54864;52.002;5.468;2023-07-20T04:05:08;4.38;;;3.35;;
68074;SDS011;54864;52.002;5.468;2023-07-20T04:06:11;3.55;;;3.25;;
68074;SDS011;54864;52.002;5.468;2023-07-20T04:07:26;3.40;;;3.10;;
68074;SDS011;54864;52.002;5.468;2023-07-20T04:08:37;3.30;;;3.00;;
68074;SDS011;54864;52.002;5.468;2023-07-20T04:09:56;4.00;;;3.10;;
68074;SDS011;54864;52.002;5.468;2023-07-20T04:11:00;3.53;;;3.30;;
68074;SDS011;54864;52.002;5.468;2023-07-20T04:12:01;3.50;;;3.20;;
68074;SDS011;54864;52.002;5.468;2023-07-20T04:13:04;4.10;;;3.33;;
68074;SDS011;54864;52.002;5.468;2023-07-20T04:14:14;3.85;;;3.50;;
68074;SDS011;54864;52.002;5.468;2023-07-20T04:15:34;3.50;;;3.30;;
68074;SDS011;54864;52.002;5.468;2023-07-20T04:16:35;4.80;;;3.70;;
68074;SDS011;54864;52.002;5.468;2023-07-20T04:17:52;3.90;;;3.50;;
68074;SDS011;54864;52.002;5.468;2023-07-20T04:18:54;6.57;;;3.80;;
68074;SDS011;54864;52.002;5.468;2023-07-20T04:19:56;4.00;;;3.60;;
68074;SDS011;54864;52.002;5.468;2023-07-20T04:20:57;6.28;;;4.35;;
68074;SDS011;54864;52.002;5.468;2023-07-20T04:22:00;4.03;;;3.58;;
68074;SDS011;54864;52.002;5.468;2023-07-20T04:23:01;3.83;;;3.53;;
68074;SDS011;54864;52.002;5.468;2023-07-20T04:24:14;5.72;;;3.30;;
68074;SDS011;54864;52.002;5.468;2023-07-20T04:25:34;5.18;;;3.60;;
68074;SDS011;54864;52.002;5.468;2023-07-20T04:26:42;5.72;;;3.70;;
68074;SDS011;54864;52.002;5.468;2023-07-20T04:27:43;5.15;;;3.40;;
68074;SDS011;54864;52.002;5.468;2023-07-20T04:28:49;9.13;;;4.18;;
68074;SDS011;54864;52.002;5.468;2023-07-20T04:30:12;7.13;;;3.97;;
68074;SDS011;54864;52.002;5.468;2023-07-20T04:31:13;7.35;;;3.85;;
68074;SDS011;54864;52.002;5.468;2023-07-20T04:32:22;4.30;;;3.90;;
68074;SDS011;54864;52.002;5.468;2023-07-20T04:33:41;4.43;;;4.03;;
68074;SDS011;54864;52.002;5.468;2023-07-20T04:34:43;8.57;;;4.32;;
68074;SDS011;54864;52.002;5.468;2023-07-20T04:35:58;7.40;;;4.40;;
68074;SDS011;54864;52.002;5.468;2023-07-20T04:37:07;4.57;;;4.18;;
68074;SDS011;54864;52.002;5.468;2023-07-20T04:38:08;6.32;;;4.63;;
68074;SDS011;54864;52.002;5.468;2023-07-20T04:39:12;4.90;;;4.40;;
68074;SDS011;54864;52.002;5.468;2023-07-20T04:40:32;5.72;;;4.57;;
68074;SDS011;54864;52.002;5.468;2023-07-20T04:41:33;5.68;;;4.88;;
68074;SDS011;54864;52.002;5.468;2023-07-20T04:42:34;6.53;;;5.03;;
68074;SDS011;54864;52.002;5.468;2023-07-20T04:43:36;5.95;;;5.20;;
68074;SDS011;54864;52.002;5.468;2023-07-20T04:44:37;6.00;;;5.17;;
68074;SDS011;54864;52.002;5.468;2023-07-20T04:45:39;5.93;;;5.07;;
68074;SDS011;54864;52.002;5.468;2023-07-20T04:46:40;6.38;;;5.00;;
68074;SDS011;54864;52.002;5.468;2023-07-20T04:47:42;6.15;;;5.50;;
68074;SDS011;54864;52.002;5.468;2023-07-20T04:49:01;5.30;;;4.80;;
68074;SDS011;54864;52.002;5.468;2023-07-20T04:50:04;12.38;;;6.18;;
68074;SDS011;54864;52.002;5.468;2023-07-20T04:51:05;7.97;;;5.43;;
68074;SDS011;54864;52.002;5.468;2023-07-20T04:52:09;6.43;;;5.25;;
68074;SDS011;54864;52.002;5.468;2023-07-20T04:53:09;7.07;;;5.00;;
68074;SDS011;54864;52.002;5.468;2023-07-20T04:54:12;6.37;;;5.50;;
68074;SDS011;54864;52.002;5.468;2023-07-20T04:55:32;6.03;;;5.47;;
68074;SDS011;54864;52.002;5.468;2023-07-20T04:56:53;5.80;;;5.20;;
68074;SDS011;54864;52.002;5.468;2023-07-20T04:57:54;5.50;;;5.00;;
68074;SDS011;54864;52.002;5.468;2023-07-20T04:58:56;6.32;;;5.47;;
68074;SDS011;54864;52.002;5.468;2023-07-20T05:00:03;6.00;;;5.40;;
68074;SDS011;54864;52.002;5.468;2023-07-20T05:01:07;6.82;;;4.72;;
68074;SDS011;54864;52.002;5.468;2023-07-20T05:02:11;7.13;;;5.03;;
68074;SDS011;54864;52.002;5.468;2023-07-20T05:03:13;6.57;;;5.28;;
68074;SDS011;54864;52.002;5.468;2023-07-20T05:04:14;8.37;;;5.23;;
68074;SDS011;54864;52.002;5.468;2023-07-20T05:05:31;6.00;;;5.35;;
68074;SDS011;54864;52.002;5.468;2023-07-20T05:06:32;7.22;;;5.20;;
68074;SDS011;54864;52.002;5.468;2023-07-20T05:07:38;5.57;;;5.07;;
68074;SDS011;54864;52.002;5.468;2023-07-20T05:08:42;5.75;;;5.20;;
68074;SDS011;54864;52.002;5.468;2023-07-20T05:10:02;5.93;;;4.70;;
68074;SDS011;54864;52.002;5.468;2023-07-20T05:11:04;6.25;;;5.15;;
68074;SDS011;54864;52.002;5.468;2023-07-20T05:12:06;6.32;;;5.38;;
68074;SDS011;54864;52.002;5.468;2023-07-20T05:13:07;9.27;;;5.85;;
68074;SDS011;54864;52.002;5.468;2023-07-20T05:14:26;6.15;;;5.55;;
68074;SDS011;54864;52.002;5.468;2023-07-20T05:15:47;8.35;;;5.10;;
68074;SDS011;54864;52.002;5.468;2023-07-20T05:16:55;6.68;;;5.43;;
68074;SDS011;54864;52.002;5.468;2023-07-20T05:17:57;6.25;;;5.65;;
68074;SDS011;54864;52.002;5.468;2023-07-20T05:18:58;6.75;;;5.25;;
68074;SDS011;54864;52.002;5.468;2023-07-20T05:20:19;8.73;;;6.00;;
68074;SDS011;54864;52.002;5.468;2023-07-20T05:21:39;7.60;;;6.22;;
68074;SDS011;54864;52.002;5.468;2023-07-20T05:22:42;6.82;;;5.97;;
68074;SDS011;54864;52.002;5.468;2023-07-20T05:24:02;6.93;;;6.22;;
68074;SDS011;54864;52.002;5.468;2023-07-20T05:25:07;7.25;;;5.68;;
68074;SDS011;54864;52.002;5.468;2023-07-20T05:26:08;6.75;;;5.97;;
68074;SDS011;54864;52.002;5.468;2023-07-20T05:27:10;8.05;;;5.75;;
68074;SDS011;54864;52.002;5.468;2023-07-20T05:28:11;7.67;;;5.70;;
68074;SDS011;54864;52.002;5.468;2023-07-20T05:29:13;9.43;;;6.50;;
68074;SDS011;54864;52.002;5.468;2023-07-20T05:30:23;7.03;;;5.88;;
68074;SDS011;54864;52.002;5.468;2023-07-20T05:31:25;8.25;;;6.32;;
68074;SDS011;54864;52.002;5.468;2023-07-20T05:32:26;10.60;;;7.00;;
68074;SDS011;54864;52.002;5.468;2023-07-20T05:33:31;11.93;;;6.20;;
68074;SDS011;54864;52.002;5.468;2023-07-20T05:34:51;13.63;;;6.65;;
68074;SDS011;54864;52.002;5.468;2023-07-20T05:35:53;9.82;;;5.93;;
68074;SDS011;54864;52.002;5.468;2023-07-20T05:37:12;7.78;;;6.18;;
68074;SDS011;54864;52.002;5.468;2023-07-20T05:38:16;8.60;;;6.18;;
68074;SDS011;54864;52.002;5.468;2023-07-20T05:39:35;9.32;;;6.25;;
68074;SDS011;54864;52.002;5.468;2023-07-20T05:40:58;7.60;;;5.87;;
68074;SDS011;54864;52.002;5.468;2023-07-20T05:42:01;6.60;;;5.43;;
68074;SDS011;54864;52.002;5.468;2023-07-20T05:43:06;8.10;;;5.90;;
68074;SDS011;54864;52.002;5.468;2023-07-20T05:44:06;6.15;;;5.32;;
68074;SDS011;54864;52.002;5.468;2023-07-20T05:45:11;8.40;;;6.22;;
68074;SDS011;54864;52.002;5.468;2023-07-20T05:46:15;8.07;;;5.60;;
68074;SDS011;54864;52.002;5.468;2023-07-20T05:47:20;6.60;;;5.57;;
68074;SDS011;54864;52.002;5.468;2023-07-20T05:48:40;6.47;;;5.50;;
68074;SDS011;54864;52.002;5.468;2023-07-20T05:49:57;8.65;;;6.03;;
68074;SDS011;54864;52.002;5.468;2023-07-20T05:50:57;7.25;;;5.43;;
68074;SDS011;54864;52.002;5.468;2023-07-20T05:52:08;8.43;;;5.57;;
68074;SDS011;54864;52.002;5.468;2023-07-20T05:53:09;5.93;;;5.32;;
68074;SDS011;54864;52.002;5.468;2023-07-20T05:54:31;6.90;;;5.47;;
68074;SDS011;54864;52.002;5.468;2023-07-20T05:55:53;6.03;;;5.35;;
68074;SDS011;54864;52.002;5.468;2023-07-20T05:56:55;6.03;;;5.20;;
68074;SDS011;54864;52.002;5.468;2023-07-20T05:57:59;6.88;;;5.38;;
68074;SDS011;54864;52.002;5.468;2023-07-20T05:59:01;5.78;;;5.10;;
68074;SDS011;54864;52.002;5.468;2023-07-20T06:00:02;6.25;;;5.05;;
68074;SDS011;54864;52.002;5.468;2023-07-20T06:01:04;7.25;;;4.93;;
68074;SDS011;54864;52.002;5.468;2023-07-20T06:02:06;9.68;;;5.40;;
68074;SDS011;54864;52.002;5.468;2023-07-20T06:03:11;5.32;;;4.40;;
68074;SDS011;54864;52.002;5.468;2023-07-20T06:04:28;5.35;;;4.70;;
68074;SDS011;54864;52.002;5.468;2023-07-20T06:05:49;5.90;;;4.70;;
68074;SDS011;54864;52.002;5.468;2023-07-20T06:06:50;5.05;;;4.43;;
68074;SDS011;54864;52.002;5.468;2023-07-20T06:07:52;5.40;;;4.85;;
68074;SDS011;54864;52.002;5.468;2023-07-20T06:08:54;7.53;;;4.20;;
68074;SDS011;54864;52.002;5.468;2023-07-20T06:09:58;4.85;;;4.35;;
68074;SDS011;54864;52.002;5.468;2023-07-20T06:10:59;5.72;;;4.50;;
68074;SDS011;54864;52.002;5.468;2023-07-20T06:12:01;6.05;;;4.35;;
68074;SDS011;54864;52.002;5.468;2023-07-20T06:13:02;6.18;;;4.70;;
68074;SDS011;54864;52.002;5.468;2023-07-20T06:14:23;6.85;;;4.20;;
68074;SDS011;54864;52.002;5.468;2023-07-20T06:15:42;6.93;;;3.90;;
68074;SDS011;54864;52.002;5.468;2023-07-20T06:16:50;4.88;;;4.20;;
68074;SDS011;54864;52.002;5.468;2023-07-20T06:17:51;5.03;;;4.10;;
68074;SDS011;54864;52.002;5.468;2023-07-20T06:19:11;6.17;;;4.27;;
68074;SDS011;54864;52.002;5.468;2023-07-20T06:20:12;4.53;;;4.10;;
68074;SDS011;54864;52.002;5.468;2023-07-20T06:21:14;4.47;;;4.03;;
68074;SDS011;54864;52.002;5.468;2023-07-20T06:22:17;6.80;;;4.10;;
68074;SDS011;54864;52.002;5.468;2023-07-20T06:23:25;5.22;;;3.90;;
68074;SDS011;54864;52.002;5.468;2023-07-20T06:24:47;5.75;;;4.25;;
68074;SDS011;54864;52.002;5.468;2023-07-20T06:25:50;4.40;;;3.67;;
68074;SDS011;54864;52.002;5.468;2023-07-20T06:27:09;4.70;;;3.80;;
68074;SDS011;54864;52.002;5.468;2023-07-20T06:28:15;4.72;;;3.47;;
68074;SDS011;54864;52.002;5.468;2023-07-20T06:29:31;7.55;;;3.28;;
68074;SDS011;54864;52.002;5.468;2023-07-20T06:30:51;4.90;;;3.13;;
68074;SDS011;54864;52.002;5.468;2023-07-20T06:31:52;4.90;;;3.43;;
68074;SDS011;54864;52.002;5.468;2023-07-20T06:32:54;3.40;;;2.90;;
68074;SDS011;54864;52.002;5.468;2023-07-20T06:33:55;4.63;;;2.75;;
68074;SDS011;54864;52.002;5.468;2023-07-20T06:34:57;4.75;;;2.63;;
68074;SDS011;54864;52.002;5.468;2023-07-20T06:35:58;3.33;;;2.58;;
68074;SDS011;54864;52.002;5.468;2023-07-20T06:37:00;3.13;;;2.50;;
68074;SDS011;54864;52.002;5.468;2023-07-20T06:38:03;4.32;;;3.22;;
68074;SDS011;54864;52.002;5.468;2023-07-20T06:39:13;3.67;;;2.50;;
68074;SDS011;54864;52.002;5.468;2023-07-20T06:40:15;4.43;;;3.13;;
68074;SDS011;54864;52.002;5.468;2023-07-20T06:41:36;5.53;;;3.03;;
68074;SDS011;54864;52.002;5.468;2023-07-20T06:42:44;6.38;;;2.90;;
68074;SDS011;54864;52.002;5.468;2023-07-20T06:44:04;2.90;;;1.98;;
68074;SDS011;54864;52.002;5.468;2023-07-20T06:45:06;2.03;;;1.60;;
68074;SDS011;54864;52.002;5.468;2023-07-20T06:46:07;1.90;;;1.77;;
68074;SDS011;54864;52.002;5.468;2023-07-20T06:47:09;3.47;;;1.73;;
68074;SDS011;54864;52.002;5.468;2023-07-20T06:48:25;3.80;;;1.42;;